createdAt,value
2023-01-19T00:00:18.363Z,98052.47
2023-01-19T00:02:53.027Z,98054.53
2023-01-19T00:05:25.879Z,98055.25
2023-01-19T00:08:14.725Z,98049.50
2023-01-19T00:10:51.146Z,98054.09
2023-01-19T00:13:24.063Z,98059.06
2023-01-19T00:15:57.334Z,98066.72
2023-01-19T00:18:31.515Z,98070.75
2023-01-19T00:21:04.323Z,98064.88
2023-01-19T00:23:37.112Z,98070.94
2023-01-19T00:26:10.673Z,98067.59
2023-01-19T00:28:43.776Z,98063.19
2023-01-19T00:31:17.296Z,98060.22
2023-01-19T00:33:52.838Z,98060.81
2023-01-19T00:36:25.786Z,98070.19
2023-01-19T00:38:58.656Z,98066.91
2023-01-19T00:41:48.964Z,98067.69
2023-01-19T00:44:21.756Z,98068.81
2023-01-19T00:46:54.501Z,98071.25
2023-01-19T00:49:28.662Z,98077.69
2023-01-19T00:52:01.526Z,98068.97
2023-01-19T00:54:34.442Z,98071.97
2023-01-19T00:57:07.447Z,98073.03
2023-01-19T00:59:40.304Z,98073.72
2023-01-19T01:02:13.368Z,98065.03
2023-01-19T01:04:47.703Z,98068.91
2023-01-19T01:07:20.500Z,98077.22
2023-01-19T01:09:53.500Z,98075.75
2023-01-19T01:12:26.718Z,98074.38
2023-01-19T01:14:59.573Z,98077.72
2023-01-19T01:17:32.380Z,98082.28
2023-01-19T01:20:07.386Z,98091.53
2023-01-19T01:22:40.758Z,98090.03
2023-01-19T01:25:15.032Z,98086.47
2023-01-19T01:27:47.825Z,98086.78
2023-01-19T01:30:21.283Z,98083.19
2023-01-19T01:32:54.067Z,98088.00
2023-01-19T01:35:28.402Z,98084.34
2023-01-19T01:38:01.915Z,98077.16
2023-01-19T01:40:34.752Z,98080.13
2023-01-19T01:43:12.463Z,98076.81
2023-01-19T01:45:46.303Z,98090.44
2023-01-19T01:48:23.375Z,98085.84
2023-01-19T01:51:19.088Z,98097.00
2023-01-19T01:54:00.807Z,98094.97
2023-01-19T01:56:36.796Z,98091.91
2023-01-19T01:59:26.091Z,98093.03
2023-01-19T02:02:20.313Z,98105.38
2023-01-19T02:04:56.802Z,98094.50
2023-01-19T02:07:56.675Z,98102.81
2023-01-19T02:10:46.998Z,98098.03
2023-01-19T02:13:23.137Z,98100.66
2023-01-19T02:15:58.455Z,98101.34
2023-01-19T02:18:33.539Z,98100.47
2023-01-19T02:21:13.422Z,98100.56
2023-01-19T02:23:49.606Z,98107.81
2023-01-19T02:26:24.468Z,98103.94
2023-01-19T02:29:00.712Z,98104.78
2023-01-19T02:31:35.283Z,98101.47
2023-01-19T02:34:10.560Z,98101.25
2023-01-19T02:36:49.215Z,98099.84
2023-01-19T02:39:29.456Z,98106.28
2023-01-19T02:42:05.659Z,98109.59
2023-01-19T02:44:40.659Z,98108.44
2023-01-19T02:47:14.152Z,98112.59
2023-01-19T02:49:55.638Z,98113.53
2023-01-19T02:52:29.392Z,98114.63
2023-01-19T02:55:15.307Z,98114.75
2023-01-19T02:58:01.738Z,98110.91
2023-01-19T03:00:41.562Z,98099.28
2023-01-19T03:03:27.237Z,98090.09
2023-01-19T03:06:07.455Z,98098.47
2023-01-19T03:08:47.465Z,98106.81
2023-01-19T03:11:21.844Z,98108.38
2023-01-19T03:14:00.958Z,98106.09
2023-01-19T03:16:39.599Z,98101.72
2023-01-19T03:19:18.851Z,98108.81
2023-01-19T03:21:57.985Z,98105.88
2023-01-19T03:24:36.325Z,98100.13
2023-01-19T03:27:14.797Z,98111.63
2023-01-19T03:29:52.298Z,98103.13
2023-01-19T03:32:30.642Z,98105.34
2023-01-19T03:35:09.605Z,98104.31
2023-01-19T03:37:46.064Z,98110.97
2023-01-19T03:40:19.155Z,98110.28
2023-01-19T03:42:53.928Z,98109.56
2023-01-19T03:45:27.636Z,98102.91
2023-01-19T03:48:00.836Z,98103.75
2023-01-19T03:50:33.922Z,98104.88
2023-01-19T03:53:11.758Z,98098.41
2023-01-19T03:55:47.935Z,98112.69
2023-01-19T03:58:23.100Z,98115.25
2023-01-19T04:00:55.924Z,98121.00
2023-01-19T04:03:29.058Z,98117.25
2023-01-19T04:06:02.101Z,98120.56
2023-01-19T04:08:34.995Z,98115.91
2023-01-19T04:11:08.809Z,98116.88
2023-01-19T04:13:43.727Z,98120.22
2023-01-19T04:16:20.172Z,98121.31
2023-01-19T04:18:53.462Z,98126.44
2023-01-19T04:21:26.486Z,98116.00
2023-01-19T04:23:59.709Z,98126.38
2023-01-19T04:26:32.504Z,98119.22
2023-01-19T04:29:06.758Z,98117.16
2023-01-19T04:31:39.628Z,98122.25
2023-01-19T04:34:12.517Z,98126.03
2023-01-19T04:36:46.739Z,98127.19
2023-01-19T04:39:19.515Z,98132.34
2023-01-19T04:41:52.999Z,98136.50
2023-01-19T04:44:27.613Z,98125.25
2023-01-19T04:47:01.602Z,98132.78
2023-01-19T04:49:37.620Z,98129.84
2023-01-19T04:52:10.414Z,98137.84
2023-01-19T04:54:43.193Z,98128.28
2023-01-19T04:57:16.061Z,98119.56
2023-01-19T04:59:50.197Z,98122.94
2023-01-19T05:02:23.804Z,98117.00
2023-01-19T05:04:56.684Z,98120.09
2023-01-19T05:07:29.605Z,98122.72
2023-01-19T05:10:02.399Z,98124.00
2023-01-19T05:12:35.206Z,98115.75
2023-01-19T05:15:13.451Z,98136.09
2023-01-19T05:17:46.643Z,98127.91
2023-01-19T05:20:19.931Z,98133.28
2023-01-19T05:22:53.517Z,98131.94
2023-01-19T05:25:26.482Z,98131.53
2023-01-19T05:27:59.383Z,98134.47
2023-01-19T05:30:33.742Z,98142.78
2023-01-19T05:33:06.803Z,98149.63
2023-01-19T05:35:39.705Z,98154.38
2023-01-19T05:38:13.603Z,98157.22
2023-01-19T05:40:47.543Z,98155.81
2023-01-19T05:43:20.417Z,98158.47
2023-01-19T05:45:54.618Z,98152.38
2023-01-19T05:48:27.464Z,98157.75
2023-01-19T05:51:01.486Z,98169.66
2023-01-19T05:53:34.446Z,98161.25
2023-01-19T05:56:09.851Z,98158.97
2023-01-19T05:58:42.818Z,98173.19
2023-01-19T06:01:17.220Z,98167.75
2023-01-19T06:03:50.162Z,98170.66
2023-01-19T06:06:23.649Z,98168.34
2023-01-19T06:08:56.527Z,98171.88
2023-01-19T06:11:29.438Z,98172.88
2023-01-19T06:14:02.627Z,98178.06
2023-01-19T06:16:36.822Z,98178.44
2023-01-19T06:19:09.808Z,98175.44
2023-01-19T06:21:49.448Z,98185.44
2023-01-19T06:24:23.172Z,98182.03
2023-01-19T06:26:56.658Z,98177.97
2023-01-19T06:29:29.592Z,98186.75
2023-01-19T06:32:04.033Z,98184.31
2023-01-19T06:34:36.930Z,98180.66
2023-01-19T06:37:16.430Z,98180.16
2023-01-19T06:39:49.527Z,98185.19
2023-01-19T06:42:22.507Z,98177.25
2023-01-19T06:44:55.373Z,98189.50
2023-01-19T06:47:29.595Z,98190.78
2023-01-19T06:50:03.471Z,98200.69
2023-01-19T06:52:42.523Z,98198.41
2023-01-19T06:55:16.253Z,98198.50
2023-01-19T06:57:49.186Z,98203.03
2023-01-19T07:00:22.453Z,98206.66
2023-01-19T07:02:56.762Z,98198.16
2023-01-19T07:05:29.692Z,98198.50
2023-01-19T07:08:03.327Z,98201.63
2023-01-19T07:11:24.733Z,98202.69
2023-01-19T07:13:30.161Z,98195.25
2023-01-19T07:16:07.358Z,98193.41
2023-01-19T07:18:42.795Z,98197.47
2023-01-19T07:21:15.725Z,98196.13
2023-01-19T07:23:49.743Z,98193.50
2023-01-19T07:26:25.146Z,98200.28
2023-01-19T07:28:58.237Z,98206.28
2023-01-19T07:31:31.475Z,98213.22
2023-01-19T07:34:07.215Z,98206.16
2023-01-19T07:36:40.276Z,98212.09
2023-01-19T07:39:13.655Z,98220.38
2023-01-19T07:41:49.302Z,98213.63
2023-01-19T07:44:22.303Z,98212.91
2023-01-19T07:46:55.482Z,98214.00
2023-01-19T07:49:30.061Z,98211.00
2023-01-19T07:52:03.136Z,98206.41
2023-01-19T07:54:36.284Z,98203.84
2023-01-19T07:57:09.559Z,98222.50
2023-01-19T07:59:42.653Z,98223.00
2023-01-19T08:02:17.263Z,98222.25
2023-01-19T08:04:52.430Z,98228.34
2023-01-19T08:07:25.818Z,98236.94
2023-01-19T08:09:58.950Z,98233.34
2023-01-19T08:12:32.177Z,98234.97
2023-01-19T08:15:06.622Z,98237.72
2023-01-19T08:17:39.853Z,98245.97
2023-01-19T08:20:15.477Z,98249.13
2023-01-19T08:22:48.861Z,98251.94
2023-01-19T08:25:21.883Z,98261.94
2023-01-19T08:27:56.638Z,98255.34
2023-01-19T08:30:30.557Z,98253.59
2023-01-19T08:33:08.347Z,98257.38
2023-01-19T08:35:45.650Z,98253.72
2023-01-19T08:38:19.064Z,98264.19
2023-01-19T08:40:52.347Z,98262.19
2023-01-19T08:43:26.034Z,98271.03
2023-01-19T08:45:59.235Z,98273.78
2023-01-19T08:48:32.842Z,98271.09
2023-01-19T08:51:07.894Z,98265.47
2023-01-19T08:53:41.942Z,98267.03
2023-01-19T08:56:15.425Z,98273.13
2023-01-19T08:58:59.438Z,98271.34
2023-01-19T09:01:41.560Z,98269.28
2023-01-19T09:04:15.350Z,98286.59
2023-01-19T09:06:50.441Z,98286.47
2023-01-19T09:09:23.801Z,98274.63
2023-01-19T09:11:57.056Z,98279.66
2023-01-19T09:14:30.426Z,98286.53
2023-01-19T09:17:35.438Z,98289.75
2023-01-19T09:20:28.617Z,98291.22
2023-01-19T09:23:06.640Z,98292.28
2023-01-19T09:25:40.391Z,98286.28
2023-01-19T09:28:29.598Z,98284.81
2023-01-19T09:31:07.365Z,98279.69
2023-01-19T09:34:01.643Z,98267.31
2023-01-19T09:36:36.865Z,98280.38
2023-01-19T09:39:12.063Z,98269.44
2023-01-19T09:41:50.498Z,98270.22
2023-01-19T09:44:31.484Z,98265.25
2023-01-19T09:47:15.633Z,98276.47
2023-01-19T09:49:53.923Z,98267.06
2023-01-19T09:52:27.756Z,98272.63
2023-01-19T09:56:09.103Z,98273.06
2023-01-19T09:58:48.024Z,98273.97
2023-01-19T10:01:39.275Z,98269.81
2023-01-19T10:04:30.856Z,98267.78
2023-01-19T10:07:24.761Z,98263.59
2023-01-19T10:10:15.189Z,98272.28
2023-01-19T10:13:01.593Z,98276.28
2023-01-19T10:15:47.124Z,98277.47
2023-01-19T10:18:25.417Z,98279.06
2023-01-19T10:21:05.953Z,98282.94
2023-01-19T10:23:44.986Z,98290.03
2023-01-19T10:26:23.489Z,98282.16
2023-01-19T10:29:03.707Z,98295.22
2023-01-19T10:31:40.925Z,98288.47
2023-01-19T10:34:20.970Z,98290.78
2023-01-19T10:37:00.402Z,98292.66
2023-01-19T10:39:38.514Z,98299.84
2023-01-19T10:42:15.933Z,98282.88
2023-01-19T10:44:55.432Z,98290.38
2023-01-19T10:47:35.381Z,98294.38
2023-01-19T10:50:25.018Z,98295.16
2023-01-19T10:53:01.109Z,98284.50
2023-01-19T10:55:38.254Z,98287.31
2023-01-19T10:58:30.365Z,98285.72
2023-01-19T11:01:16.082Z,98286.00
2023-01-19T11:03:49.384Z,98286.91
2023-01-19T11:06:26.629Z,98287.66
2023-01-19T11:09:16.874Z,98287.25
2023-01-19T11:11:52.465Z,98292.41
2023-01-19T11:14:26.943Z,98299.41
2023-01-19T11:17:01.385Z,98285.81
2023-01-19T11:19:35.159Z,98290.41
2023-01-19T11:22:21.635Z,98279.66
2023-01-19T11:24:59.392Z,98284.94
2023-01-19T11:27:35.634Z,98276.72
2023-01-19T11:30:18.945Z,98279.91
2023-01-19T11:32:53.691Z,98273.22
2023-01-19T11:35:34.667Z,98281.06
2023-01-19T11:38:19.207Z,98284.63
2023-01-19T11:40:55.206Z,98281.47
2023-01-19T11:43:43.546Z,98288.56
2023-01-19T11:46:23.857Z,98283.06
2023-01-19T11:49:03.992Z,98275.88
2023-01-19T11:51:41.270Z,98268.84
2023-01-19T11:54:20.930Z,98273.59
2023-01-19T11:56:55.554Z,98258.69
2023-01-19T11:59:29.140Z,98268.56
2023-01-19T12:02:11.352Z,98265.03
2023-01-19T12:04:48.058Z,98264.97
2023-01-19T12:07:27.063Z,98254.16
2023-01-19T12:10:07.304Z,98266.47
2023-01-19T12:12:41.352Z,98270.78
2023-01-19T12:15:25.201Z,98273.63
2023-01-19T12:18:02.093Z,98266.56
2023-01-19T12:20:40.630Z,98269.69
2023-01-19T12:23:23.774Z,98272.84
2023-01-19T12:26:09.201Z,98276.78
2023-01-19T12:28:45.582Z,98268.94
2023-01-19T12:31:20.584Z,98282.69
2023-01-19T12:33:54.044Z,98284.69
2023-01-19T12:36:39.652Z,98285.00
2023-01-19T12:39:18.432Z,98281.53
2023-01-19T12:42:06.543Z,98281.09
2023-01-19T12:44:39.843Z,98268.94
2023-01-19T12:47:22.844Z,98272.50
2023-01-19T12:50:00.849Z,98272.03
2023-01-19T12:52:40.448Z,98270.50
2023-01-19T12:55:21.902Z,98282.19
2023-01-19T12:58:00.829Z,98275.56
2023-01-19T13:00:36.312Z,98276.72
2023-01-19T13:03:43.990Z,98271.28
2023-01-19T13:06:16.785Z,98272.03
2023-01-19T13:09:01.675Z,98259.50
2023-01-19T13:11:34.844Z,98262.66
2023-01-19T13:14:36.951Z,98264.22
2023-01-19T13:17:27.109Z,98260.25
2023-01-19T13:20:11.575Z,98264.19
2023-01-19T13:23:20.351Z,98256.72
2023-01-19T13:26:07.581Z,98259.88
2023-01-19T13:28:43.545Z,98263.41
2023-01-19T13:31:17.530Z,98261.44
2023-01-19T13:33:53.528Z,98261.03
2023-01-19T13:36:30.956Z,98261.81
2023-01-19T13:39:07.094Z,98271.22
2023-01-19T13:41:42.594Z,98268.84
2023-01-19T13:44:23.186Z,98268.09
2023-01-19T13:46:59.341Z,98269.28
2023-01-19T13:49:36.399Z,98265.34
2023-01-19T13:52:15.371Z,98265.00
2023-01-19T13:54:49.977Z,98262.59
2023-01-19T13:57:28.927Z,98268.44
2023-01-19T14:00:05.276Z,98265.72
2023-01-19T14:02:53.940Z,98271.25
2023-01-19T14:05:29.898Z,98268.50
2023-01-19T14:08:04.876Z,98273.22
2023-01-19T14:10:40.379Z,98267.69
2023-01-19T14:13:17.894Z,98277.47
2023-01-19T14:15:57.121Z,98269.66
2023-01-19T14:18:31.521Z,98271.59
2023-01-19T14:21:07.626Z,98272.41
2023-01-19T14:23:43.808Z,98276.69
2023-01-19T14:26:46.521Z,98278.97
2023-01-19T14:29:25.885Z,98273.50
2023-01-19T14:32:16.500Z,98274.72
2023-01-19T14:34:51.157Z,98276.25
2023-01-19T14:37:27.108Z,98273.50
2023-01-19T14:40:04.736Z,98280.97
2023-01-19T14:42:45.910Z,98275.78
2023-01-19T14:45:23.773Z,98276.97
2023-01-19T14:47:59.916Z,98284.13
2023-01-19T14:50:37.198Z,98284.91
2023-01-19T14:53:19.459Z,98282.56
2023-01-19T14:55:55.599Z,98273.16
2023-01-19T14:58:31.288Z,98285.31
2023-01-19T15:01:06.393Z,98277.06
2023-01-19T15:03:46.441Z,98285.25
2023-01-19T15:06:21.471Z,98285.63
2023-01-19T15:08:55.495Z,98280.97
2023-01-19T15:11:32.324Z,98283.25
2023-01-19T15:14:05.126Z,98281.34
2023-01-19T15:16:39.328Z,98285.72
2023-01-19T15:19:13.618Z,98283.38
2023-01-19T15:21:48.611Z,98285.63
2023-01-19T15:24:21.423Z,98288.41
2023-01-19T15:26:54.213Z,98288.47
2023-01-19T15:29:28.485Z,98285.59
2023-01-19T15:32:03.884Z,98285.63
2023-01-19T15:34:36.678Z,98282.16
2023-01-19T15:37:09.522Z,98285.66
2023-01-19T15:39:42.364Z,98287.19
2023-01-19T15:42:15.518Z,98287.69
2023-01-19T15:44:48.513Z,98283.75
2023-01-19T15:47:22.695Z,98294.31
2023-01-19T15:49:55.558Z,98290.75
2023-01-19T15:52:28.375Z,98288.41
2023-01-19T15:55:01.081Z,98294.69
2023-01-19T15:57:35.113Z,98282.94
2023-01-19T16:00:08.810Z,98287.97
2023-01-19T16:02:46.442Z,98285.69
2023-01-19T16:05:19.315Z,98288.00
2023-01-19T16:07:52.368Z,98300.09
2023-01-19T16:10:26.310Z,98290.66
2023-01-19T16:12:59.066Z,98297.00
2023-01-19T16:15:32.312Z,98298.56
2023-01-19T16:18:07.119Z,98304.06
2023-01-19T16:20:40.107Z,98298.47
2023-01-19T16:23:15.215Z,98295.06
2023-01-19T16:25:57.271Z,98299.75
2023-01-19T16:28:29.989Z,98300.22
2023-01-19T16:31:03.375Z,98298.56
2023-01-19T16:33:37.570Z,98305.69
2023-01-19T16:36:32.109Z,98306.91
2023-01-19T16:39:07.450Z,98301.66
2023-01-19T16:41:40.784Z,98308.88
2023-01-19T16:44:15.410Z,98310.44
2023-01-19T16:46:50.096Z,98309.34
2023-01-19T16:49:28.419Z,98312.00
2023-01-19T16:52:01.758Z,98319.50
2023-01-19T16:54:34.524Z,98316.66
2023-01-19T16:57:07.331Z,98316.69
2023-01-19T16:59:40.559Z,98319.06
2023-01-19T17:02:13.500Z,98322.91
2023-01-19T17:04:47.688Z,98330.41
2023-01-19T17:07:20.453Z,98320.69
2023-01-19T17:09:53.280Z,98333.63
2023-01-19T17:12:26.014Z,98327.75
2023-01-19T17:14:58.795Z,98338.72
2023-01-19T17:17:31.584Z,98341.06
2023-01-19T17:20:06.715Z,98337.94
2023-01-19T17:22:39.451Z,98332.47
2023-01-19T17:25:12.172Z,98339.81
2023-01-19T17:27:44.919Z,98339.53
2023-01-19T17:30:18.537Z,98346.19
2023-01-19T17:32:51.277Z,98336.31
2023-01-19T17:35:25.692Z,98340.31
2023-01-19T17:37:58.507Z,98341.72
2023-01-19T17:40:31.780Z,98332.72
2023-01-19T17:43:04.806Z,98337.91
2023-01-19T17:45:38.073Z,98342.38
2023-01-19T17:48:10.857Z,98346.59
2023-01-19T17:50:45.185Z,98344.59
2023-01-19T17:53:17.925Z,98340.44
2023-01-19T17:55:50.676Z,98339.22
2023-01-19T17:58:24.201Z,98338.06
2023-01-19T18:00:56.949Z,98342.66
2023-01-19T18:03:29.709Z,98348.50
2023-01-19T18:06:03.838Z,98338.59
2023-01-19T18:08:39.410Z,98346.72
2023-01-19T18:11:12.729Z,98349.47
2023-01-19T18:13:46.676Z,98348.97
2023-01-19T18:16:23.047Z,98345.84
2023-01-19T18:18:57.382Z,98348.50
2023-01-19T18:21:38.904Z,98340.69
2023-01-19T18:24:11.636Z,98348.59
2023-01-19T18:26:44.519Z,98344.19
2023-01-19T18:29:20.333Z,98342.81
2023-01-19T18:31:53.320Z,98341.03
2023-01-19T18:34:26.108Z,98348.00
2023-01-19T18:37:00.235Z,98353.66
2023-01-19T18:39:33.271Z,98348.56
2023-01-19T18:42:08.846Z,98350.78
2023-01-19T18:44:41.767Z,98357.16
2023-01-19T18:47:14.840Z,98348.97
2023-01-19T18:49:47.712Z,98353.75
2023-01-19T18:52:21.873Z,98356.44
2023-01-19T18:54:54.586Z,98350.84
2023-01-19T18:57:27.316Z,98360.59
2023-01-19T19:00:00.125Z,98356.81
2023-01-19T19:02:33.481Z,98350.84
2023-01-19T19:05:07.050Z,98359.53
2023-01-19T19:07:41.268Z,98356.41
2023-01-19T19:10:14.802Z,98357.47
2023-01-19T19:12:48.211Z,98356.81
2023-01-19T19:15:21.042Z,98361.47
2023-01-19T19:17:53.969Z,98371.38
2023-01-19T19:20:26.854Z,98370.19
2023-01-19T19:23:00.975Z,98370.94
2023-01-19T19:25:34.258Z,98363.91
2023-01-19T19:28:07.106Z,98373.25
2023-01-19T19:30:41.121Z,98367.72
2023-01-19T19:33:13.951Z,98374.03
2023-01-19T19:35:48.074Z,98371.97
2023-01-19T19:38:22.408Z,98375.16
2023-01-19T19:40:57.315Z,98367.88
2023-01-19T19:43:32.503Z,98384.31
2023-01-19T19:46:07.575Z,98378.88
2023-01-19T19:48:40.788Z,98381.28
2023-01-19T19:51:19.445Z,98387.47
2023-01-19T19:53:55.659Z,98380.53
2023-01-19T19:56:30.003Z,98378.44
2023-01-19T19:59:02.815Z,98380.06
2023-01-19T20:01:35.858Z,98374.25
2023-01-19T20:04:11.041Z,98380.47
2023-01-19T20:06:45.065Z,98385.94
2023-01-19T20:09:19.256Z,98387.13
2023-01-19T20:11:52.314Z,98387.22
2023-01-19T20:14:25.245Z,98388.78
2023-01-19T20:16:58.003Z,98391.44
2023-01-19T20:19:32.532Z,98385.22
2023-01-19T20:22:05.480Z,98391.91
2023-01-19T20:24:40.303Z,98389.50
2023-01-19T20:27:13.238Z,98389.19
2023-01-19T20:29:51.477Z,98401.63
2023-01-19T20:32:25.107Z,98399.53
2023-01-19T20:34:57.909Z,98392.28
2023-01-19T20:37:30.803Z,98399.75
2023-01-19T20:40:05.636Z,98404.00
2023-01-19T20:42:41.330Z,98397.31
2023-01-19T20:45:14.388Z,98405.91
2023-01-19T20:47:47.411Z,98405.25
2023-01-19T20:50:20.300Z,98396.94
2023-01-19T20:52:53.132Z,98402.28
2023-01-19T20:55:27.341Z,98397.59
2023-01-19T20:58:00.168Z,98396.59
2023-01-19T21:00:33.116Z,98400.22
2023-01-19T21:03:05.909Z,98410.25
2023-01-19T21:05:38.697Z,98401.09
2023-01-19T21:08:13.279Z,98414.25
2023-01-19T21:10:47.526Z,98418.34
2023-01-19T21:13:20.316Z,98420.63
2023-01-19T21:15:53.308Z,98419.09
2023-01-19T21:18:27.877Z,98419.22
2023-01-19T21:21:00.645Z,98422.13
2023-01-19T21:23:33.407Z,98423.03
2023-01-19T21:26:07.807Z,98439.41
2023-01-19T21:28:41.015Z,98430.72
2023-01-19T21:31:15.315Z,98438.19
2023-01-19T21:33:49.165Z,98432.31
2023-01-19T21:36:24.893Z,98438.63
2023-01-19T21:39:00.743Z,98435.06
2023-01-19T21:41:35.840Z,98446.06
2023-01-19T21:44:08.950Z,98441.72
2023-01-19T21:46:42.013Z,98444.63
2023-01-19T21:49:18.743Z,98445.84
2023-01-19T21:51:51.557Z,98445.34
2023-01-19T21:54:24.302Z,98453.25
2023-01-19T21:56:58.429Z,98447.00
2023-01-19T21:59:31.214Z,98452.50
2023-01-19T22:02:04.133Z,98454.09
2023-01-19T22:04:36.994Z,98452.19
2023-01-19T22:07:09.773Z,98456.75
2023-01-19T22:09:42.607Z,98454.03
2023-01-19T22:12:16.731Z,98448.28
2023-01-19T22:14:49.512Z,98460.78
2023-01-19T22:17:22.347Z,98461.63
2023-01-19T22:19:55.113Z,98465.06
2023-01-19T22:22:28.006Z,98469.94
2023-01-19T22:25:00.806Z,98465.59
2023-01-19T22:27:34.961Z,98470.84
2023-01-19T22:30:10.445Z,98469.72
2023-01-19T22:32:43.229Z,98469.22
2023-01-19T22:35:16.400Z,98463.78
2023-01-19T22:37:49.280Z,98469.28
2023-01-19T22:40:22.075Z,98463.16
2023-01-19T22:42:56.217Z,98470.69
2023-01-19T22:45:28.969Z,98464.66
2023-01-19T22:48:01.688Z,98472.88
2023-01-19T22:50:36.093Z,98474.81
2023-01-19T22:53:08.915Z,98476.47
2023-01-19T22:55:41.680Z,98470.59
2023-01-19T22:58:15.820Z,98474.44
2023-01-19T23:00:48.592Z,98470.94
2023-01-19T23:03:21.370Z,98466.25
2023-01-19T23:05:54.276Z,98474.88
2023-01-19T23:08:27.098Z,98473.53
2023-01-19T23:11:00.105Z,98465.38
2023-01-19T23:13:34.444Z,98470.75
2023-01-19T23:16:08.657Z,98471.75
2023-01-19T23:18:42.445Z,98470.03
2023-01-19T23:21:17.410Z,98481.09
2023-01-19T23:23:53.651Z,98476.31
2023-01-19T23:26:26.801Z,98483.13
2023-01-19T23:29:02.609Z,98473.59
2023-01-19T23:31:37.650Z,98481.47
2023-01-19T23:34:12.390Z,98489.84
2023-01-19T23:36:45.600Z,98490.56
2023-01-19T23:39:20.386Z,98485.94
2023-01-19T23:41:53.350Z,98490.63
2023-01-19T23:44:27.592Z,98494.59
2023-01-19T23:47:00.506Z,98497.69
2023-01-19T23:49:33.339Z,98487.88
2023-01-19T23:52:06.135Z,98491.41
2023-01-19T23:54:38.981Z,98483.53
2023-01-19T23:57:11.792Z,98486.16
2023-01-19T23:59:46.026Z,98488.19
